sensor_id;sensor_type;location;lat;lon;timestamp;temperature;humidity
16283;DHT22;8249;48.708;9.030;2022-07-18T00:02:02;16.20;91.70
16283;DHT22;8249;48.708;9.030;2022-07-18T00:04:30;16.10;91.70
16283;DHT22;8249;48.708;9.030;2022-07-18T00:06:57;16.10;91.90
16283;DHT22;8249;48.708;9.030;2022-07-18T00:09:24;16.10;92.00
16283;DHT22;8249;48.708;9.030;2022-07-18T00:11:52;16.00;91.90
16283;DHT22;8249;48.708;9.030;2022-07-18T00:14:22;15.90;91.80
16283;DHT22;8249;48.708;9.030;2022-07-18T00:16:49;15.80;91.60
16283;DHT22;8249;48.708;9.030;2022-07-18T00:19:18;15.80;91.70
16283;DHT22;8249;48.708;9.030;2022-07-18T00:21:45;15.80;91.60
16283;DHT22;8249;48.708;9.030;2022-07-18T00:24:12;15.70;91.30
16283;DHT22;8249;48.708;9.030;2022-07-18T00:26:39;15.70;91.50
16283;DHT22;8249;48.708;9.030;2022-07-18T00:29:06;15.70;91.70
16283;DHT22;8249;48.708;9.030;2022-07-18T00:31:34;15.70;92.20
16283;DHT22;8249;48.708;9.030;2022-07-18T00:34:02;15.60;91.70
16283;DHT22;8249;48.708;9.030;2022-07-18T00:36:29;15.70;91.80
16283;DHT22;8249;48.708;9.030;2022-07-18T00:38:57;15.70;92.00
16283;DHT22;8249;48.708;9.030;2022-07-18T00:41:24;15.60;91.90
16283;DHT22;8249;48.708;9.030;2022-07-18T00:43:52;15.60;91.90
16283;DHT22;8249;48.708;9.030;2022-07-18T00:46:21;15.50;91.90
16283;DHT22;8249;48.708;9.030;2022-07-18T00:48:51;15.50;92.20
16283;DHT22;8249;48.708;9.030;2022-07-18T00:51:18;15.40;92.10
16283;DHT22;8249;48.708;9.030;2022-07-18T00:53:46;15.40;91.90
16283;DHT22;8249;48.708;9.030;2022-07-18T00:56:16;15.40;91.60
16283;DHT22;8249;48.708;9.030;2022-07-18T00:58:43;15.30;91.60
16283;DHT22;8249;48.708;9.030;2022-07-18T01:01:11;15.30;91.80
16283;DHT22;8249;48.708;9.030;2022-07-18T01:03:57;15.30;91.70
16283;DHT22;8249;48.708;9.030;2022-07-18T01:06:24;15.20;91.80
16283;DHT22;8249;48.708;9.030;2022-07-18T01:08:51;15.20;91.90
16283;DHT22;8249;48.708;9.030;2022-07-18T01:11:18;15.20;91.80
16283;DHT22;8249;48.708;9.030;2022-07-18T01:13:47;15.20;91.80
16283;DHT22;8249;48.708;9.030;2022-07-18T01:16:14;15.20;92.20
16283;DHT22;8249;48.708;9.030;2022-07-18T01:18:44;15.20;92.50
16283;DHT22;8249;48.708;9.030;2022-07-18T01:21:13;15.10;92.70
16283;DHT22;8249;48.708;9.030;2022-07-18T01:23:41;15.10;92.60
16283;DHT22;8249;48.708;9.030;2022-07-18T01:26:08;15.00;92.70
16283;DHT22;8249;48.708;9.030;2022-07-18T01:28:36;15.00;92.50
16283;DHT22;8249;48.708;9.030;2022-07-18T01:31:03;15.00;92.40
16283;DHT22;8249;48.708;9.030;2022-07-18T01:33:31;14.90;92.50
16283;DHT22;8249;48.708;9.030;2022-07-18T01:35:58;14.90;92.50
16283;DHT22;8249;48.708;9.030;2022-07-18T01:38:27;14.90;92.50
16283;DHT22;8249;48.708;9.030;2022-07-18T01:40:55;14.90;92.50
16283;DHT22;8249;48.708;9.030;2022-07-18T01:43:22;14.80;92.40
16283;DHT22;8249;48.708;9.030;2022-07-18T01:45:50;14.80;92.30
16283;DHT22;8249;48.708;9.030;2022-07-18T01:48:17;14.80;92.30
16283;DHT22;8249;48.708;9.030;2022-07-18T01:50:45;14.80;92.00
16283;DHT22;8249;48.708;9.030;2022-07-18T01:53:12;14.80;92.10
16283;DHT22;8249;48.708;9.030;2022-07-18T01:55:40;14.90;92.00
16283;DHT22;8249;48.708;9.030;2022-07-18T01:58:07;14.80;91.60
16283;DHT22;8249;48.708;9.030;2022-07-18T02:00:34;14.80;92.00
16283;DHT22;8249;48.708;9.030;2022-07-18T02:03:01;14.80;92.10
16283;DHT22;8249;48.708;9.030;2022-07-18T02:05:29;14.80;92.40
16283;DHT22;8249;48.708;9.030;2022-07-18T02:07:56;14.70;92.50
16283;DHT22;8249;48.708;9.030;2022-07-18T02:10:23;14.70;92.80
16283;DHT22;8249;48.708;9.030;2022-07-18T02:12:51;14.60;93.00
16283;DHT22;8249;48.708;9.030;2022-07-18T02:15:18;14.50;93.30
16283;DHT22;8249;48.708;9.030;2022-07-18T02:17:45;14.50;93.40
16283;DHT22;8249;48.708;9.030;2022-07-18T02:20:13;14.50;93.70
16283;DHT22;8249;48.708;9.030;2022-07-18T02:22:41;14.40;93.60
16283;DHT22;8249;48.708;9.030;2022-07-18T02:25:09;14.40;93.50
16283;DHT22;8249;48.708;9.030;2022-07-18T02:27:36;14.40;92.90
16283;DHT22;8249;48.708;9.030;2022-07-18T02:30:07;14.40;93.40
16283;DHT22;8249;48.708;9.030;2022-07-18T02:32:34;14.40;93.30
16283;DHT22;8249;48.708;9.030;2022-07-18T02:35:04;14.30;93.40
16283;DHT22;8249;48.708;9.030;2022-07-18T02:37:32;14.30;93.40
16283;DHT22;8249;48.708;9.030;2022-07-18T02:39:59;14.30;93.60
16283;DHT22;8249;48.708;9.030;2022-07-18T02:42:26;14.30;93.60
16283;DHT22;8249;48.708;9.030;2022-07-18T02:44:53;14.30;93.70
16283;DHT22;8249;48.708;9.030;2022-07-18T02:47:21;14.20;93.80
16283;DHT22;8249;48.708;9.030;2022-07-18T02:49:48;14.20;94.30
16283;DHT22;8249;48.708;9.030;2022-07-18T02:52:15;14.20;94.20
16283;DHT22;8249;48.708;9.030;2022-07-18T02:54:42;14.10;94.40
16283;DHT22;8249;48.708;9.030;2022-07-18T02:57:09;14.10;94.70
16283;DHT22;8249;48.708;9.030;2022-07-18T02:59:36;14.00;94.70
16283;DHT22;8249;48.708;9.030;2022-07-18T03:02:04;14.00;94.90
16283;DHT22;8249;48.708;9.030;2022-07-18T03:04:32;13.90;95.00
16283;DHT22;8249;48.708;9.030;2022-07-18T03:06:59;13.90;95.40
16283;DHT22;8249;48.708;9.030;2022-07-18T03:09:26;13.90;95.50
16283;DHT22;8249;48.708;9.030;2022-07-18T03:11:54;13.80;95.50
16283;DHT22;8249;48.708;9.030;2022-07-18T03:14:21;13.80;95.70
16283;DHT22;8249;48.708;9.030;2022-07-18T03:16:48;13.80;96.00
16283;DHT22;8249;48.708;9.030;2022-07-18T03:19:15;13.70;96.20
16283;DHT22;8249;48.708;9.030;2022-07-18T03:21:44;13.70;96.40
16283;DHT22;8249;48.708;9.030;2022-07-18T03:24:11;13.70;96.60
16283;DHT22;8249;48.708;9.030;2022-07-18T03:26:39;13.70;96.70
16283;DHT22;8249;48.708;9.030;2022-07-18T03:29:06;13.70;97.10
16283;DHT22;8249;48.708;9.030;2022-07-18T03:31:33;13.70;97.10
16283;DHT22;8249;48.708;9.030;2022-07-18T03:34:00;13.70;97.40
16283;DHT22;8249;48.708;9.030;2022-07-18T03:36:27;13.60;97.80
16283;DHT22;8249;48.708;9.030;2022-07-18T03:38:56;13.60;98.00
16283;DHT22;8249;48.708;9.030;2022-07-18T03:41:22;13.60;98.00
16283;DHT22;8249;48.708;9.030;2022-07-18T03:43:50;13.60;98.20
16283;DHT22;8249;48.708;9.030;2022-07-18T03:46:16;13.60;98.10
16283;DHT22;8249;48.708;9.030;2022-07-18T03:48:43;13.60;98.50
16283;DHT22;8249;48.708;9.030;2022-07-18T03:51:11;13.60;98.70
16283;DHT22;8249;48.708;9.030;2022-07-18T03:53:38;13.60;98.90
16283;DHT22;8249;48.708;9.030;2022-07-18T03:56:07;13.60;99.10
16283;DHT22;8249;48.708;9.030;2022-07-18T03:58:34;13.60;99.00
16283;DHT22;8249;48.708;9.030;2022-07-18T04:01:01;13.60;99.10
16283;DHT22;8249;48.708;9.030;2022-07-18T04:03:29;13.60;99.50
16283;DHT22;8249;48.708;9.030;2022-07-18T04:05:56;13.60;99.70
16283;DHT22;8249;48.708;9.030;2022-07-18T04:08:23;13.60;99.60
16283;DHT22;8249;48.708;9.030;2022-07-18T04:10:50;13.70;99.80
16283;DHT22;8249;48.708;9.030;2022-07-18T04:13:19;13.60;99.70
16283;DHT22;8249;48.708;9.030;2022-07-18T04:15:46;13.60;99.70
16283;DHT22;8249;48.708;9.030;2022-07-18T04:18:13;13.60;99.90
16283;DHT22;8249;48.708;9.030;2022-07-18T04:20:40;13.70;99.90
16283;DHT22;8249;48.708;9.030;2022-07-18T04:23:09;13.70;99.90
16283;DHT22;8249;48.708;9.030;2022-07-18T04:25:37;13.80;99.90
16283;DHT22;8249;48.708;9.030;2022-07-18T04:28:05;13.80;99.90
16283;DHT22;8249;48.708;9.030;2022-07-18T04:30:34;13.80;99.90
16283;DHT22;8249;48.708;9.030;2022-07-18T04:33:03;13.70;99.90
16283;DHT22;8249;48.708;9.030;2022-07-18T04:35:31;13.80;99.90
16283;DHT22;8249;48.708;9.030;2022-07-18T04:38:01;13.80;99.90
16283;DHT22;8249;48.708;9.030;2022-07-18T04:40:28;13.80;99.90
16283;DHT22;8249;48.708;9.030;2022-07-18T04:42:56;13.90;99.90
16283;DHT22;8249;48.708;9.030;2022-07-18T04:45:23;14.00;99.90
16283;DHT22;8249;48.708;9.030;2022-07-18T04:47:52;14.00;99.90
16283;DHT22;8249;48.708;9.030;2022-07-18T04:50:21;14.00;99.90
16283;DHT22;8249;48.708;9.030;2022-07-18T04:52:49;14.00;99.90
16283;DHT22;8249;48.708;9.030;2022-07-18T04:55:17;14.10;99.90
16283;DHT22;8249;48.708;9.030;2022-07-18T04:57:46;14.10;99.90
16283;DHT22;8249;48.708;9.030;2022-07-18T05:00:15;14.20;99.90
16283;DHT22;8249;48.708;9.030;2022-07-18T05:02:44;14.30;99.90
16283;DHT22;8249;48.708;9.030;2022-07-18T05:05:13;14.40;99.90
16283;DHT22;8249;48.708;9.030;2022-07-18T05:07:42;14.50;99.90
16283;DHT22;8249;48.708;9.030;2022-07-18T05:10:11;14.60;99.90
16283;DHT22;8249;48.708;9.030;2022-07-18T05:12:40;14.80;99.90
16283;DHT22;8249;48.708;9.030;2022-07-18T05:15:10;14.90;99.90
16283;DHT22;8249;48.708;9.030;2022-07-18T05:17:37;15.00;99.90
16283;DHT22;8249;48.708;9.030;2022-07-18T05:20:06;15.10;99.90
16283;DHT22;8249;48.708;9.030;2022-07-18T05:22:36;15.20;99.90
16283;DHT22;8249;48.708;9.030;2022-07-18T05:25:04;15.30;99.90
16283;DHT22;8249;48.708;9.030;2022-07-18T05:27:32;15.40;99.90
16283;DHT22;8249;48.708;9.030;2022-07-18T05:29:59;15.50;99.90
16283;DHT22;8249;48.708;9.030;2022-07-18T05:32:27;15.50;99.90
16283;DHT22;8249;48.708;9.030;2022-07-18T05:34:54;15.60;99.90
16283;DHT22;8249;48.708;9.030;2022-07-18T05:37:21;15.80;99.90
16283;DHT22;8249;48.708;9.030;2022-07-18T05:39:50;15.90;99.90
16283;DHT22;8249;48.708;9.030;2022-07-18T05:42:18;16.00;99.90
16283;DHT22;8249;48.708;9.030;2022-07-18T05:44:45;16.10;99.90
16283;DHT22;8249;48.708;9.030;2022-07-18T05:47:12;16.30;99.90
16283;DHT22;8249;48.708;9.030;2022-07-18T05:49:39;16.40;99.90
16283;DHT22;8249;48.708;9.030;2022-07-18T05:52:07;16.60;99.90
16283;DHT22;8249;48.708;9.030;2022-07-18T05:54:34;16.70;99.30
16283;DHT22;8249;48.708;9.030;2022-07-18T05:57:02;16.80;98.90
16283;DHT22;8249;48.708;9.030;2022-07-18T05:59:29;16.90;99.00
16283;DHT22;8249;48.708;9.030;2022-07-18T06:01:56;17.10;99.10
16283;DHT22;8249;48.708;9.030;2022-07-18T06:04:23;17.30;99.30
16283;DHT22;8249;48.708;9.030;2022-07-18T06:06:50;17.40;98.60
16283;DHT22;8249;48.708;9.030;2022-07-18T06:09:18;17.60;97.60
16283;DHT22;8249;48.708;9.030;2022-07-18T06:11:45;17.70;96.90
16283;DHT22;8249;48.708;9.030;2022-07-18T06:14:13;17.80;96.50
16283;DHT22;8249;48.708;9.030;2022-07-18T06:16:41;18.00;96.10
16283;DHT22;8249;48.708;9.030;2022-07-18T06:19:08;18.20;95.60
16283;DHT22;8249;48.708;9.030;2022-07-18T06:21:35;18.30;95.90
16283;DHT22;8249;48.708;9.030;2022-07-18T06:24:03;18.40;95.20
16283;DHT22;8249;48.708;9.030;2022-07-18T06:26:30;18.50;95.10
16283;DHT22;8249;48.708;9.030;2022-07-18T06:28:57;18.70;94.70
16283;DHT22;8249;48.708;9.030;2022-07-18T06:31:25;18.90;94.30
16283;DHT22;8249;48.708;9.030;2022-07-18T06:33:52;19.00;93.90
16283;DHT22;8249;48.708;9.030;2022-07-18T06:36:19;19.20;93.70
16283;DHT22;8249;48.708;9.030;2022-07-18T06:38:49;19.30;93.30
16283;DHT22;8249;48.708;9.030;2022-07-18T06:41:17;19.50;93.00
16283;DHT22;8249;48.708;9.030;2022-07-18T06:43:45;19.60;92.60
16283;DHT22;8249;48.708;9.030;2022-07-18T06:46:12;19.80;91.90
16283;DHT22;8249;48.708;9.030;2022-07-18T06:48:40;19.90;91.70
16283;DHT22;8249;48.708;9.030;2022-07-18T06:51:08;20.00;91.30
16283;DHT22;8249;48.708;9.030;2022-07-18T06:53:35;20.20;90.50
16283;DHT22;8249;48.708;9.030;2022-07-18T06:56:02;20.30;90.20
16283;DHT22;8249;48.708;9.030;2022-07-18T06:58:31;20.60;90.40
16283;DHT22;8249;48.708;9.030;2022-07-18T07:00:59;20.70;90.20
16283;DHT22;8249;48.708;9.030;2022-07-18T07:03:26;20.90;88.00
16283;DHT22;8249;48.708;9.030;2022-07-18T07:05:55;21.00;88.30
16283;DHT22;8249;48.708;9.030;2022-07-18T07:08:22;21.20;88.30
16283;DHT22;8249;48.708;9.030;2022-07-18T07:10:49;21.40;90.60
16283;DHT22;8249;48.708;9.030;2022-07-18T07:13:16;21.60;90.00
16283;DHT22;8249;48.708;9.030;2022-07-18T07:15:43;21.70;90.00
16283;DHT22;8249;48.708;9.030;2022-07-18T07:18:10;21.90;90.40
16283;DHT22;8249;48.708;9.030;2022-07-18T07:20:37;22.10;90.40
16283;DHT22;8249;48.708;9.030;2022-07-18T07:23:06;22.30;90.10
16283;DHT22;8249;48.708;9.030;2022-07-18T07:25:36;22.40;87.90
16283;DHT22;8249;48.708;9.030;2022-07-18T07:28:04;22.50;89.00
16283;DHT22;8249;48.708;9.030;2022-07-18T07:30:31;22.70;90.00
16283;DHT22;8249;48.708;9.030;2022-07-18T07:32:59;22.80;89.90
16283;DHT22;8249;48.708;9.030;2022-07-18T07:35:27;23.00;90.20
16283;DHT22;8249;48.708;9.030;2022-07-18T07:37:55;23.30;87.90
16283;DHT22;8249;48.708;9.030;2022-07-18T07:40:26;23.40;87.30
16283;DHT22;8249;48.708;9.030;2022-07-18T07:43:04;23.50;87.20
16283;DHT22;8249;48.708;9.030;2022-07-18T07:45:32;23.60;86.90
16283;DHT22;8249;48.708;9.030;2022-07-18T07:47:59;23.70;86.00
16283;DHT22;8249;48.708;9.030;2022-07-18T07:50:26;23.80;85.30
16283;DHT22;8249;48.708;9.030;2022-07-18T07:52:53;24.00;84.90
16283;DHT22;8249;48.708;9.030;2022-07-18T07:55:20;24.10;83.90
16283;DHT22;8249;48.708;9.030;2022-07-18T07:57:49;24.30;84.80
16283;DHT22;8249;48.708;9.030;2022-07-18T08:00:16;24.50;82.40
16283;DHT22;8249;48.708;9.030;2022-07-18T08:02:54;24.60;81.50
16283;DHT22;8249;48.708;9.030;2022-07-18T08:05:21;24.70;80.90
16283;DHT22;8249;48.708;9.030;2022-07-18T08:07:48;24.90;79.00
16283;DHT22;8249;48.708;9.030;2022-07-18T08:10:15;25.10;80.50
16283;DHT22;8249;48.708;9.030;2022-07-18T08:12:42;25.40;79.70
16283;DHT22;8249;48.708;9.030;2022-07-18T08:15:11;25.60;77.10
16283;DHT22;8249;48.708;9.030;2022-07-18T08:17:39;25.80;74.00
16283;DHT22;8249;48.708;9.030;2022-07-18T08:20:07;26.00;73.00
16283;DHT22;8249;48.708;9.030;2022-07-18T08:22:34;26.00;71.00
16283;DHT22;8249;48.708;9.030;2022-07-18T08:25:02;26.10;71.00
16283;DHT22;8249;48.708;9.030;2022-07-18T08:27:29;26.20;71.10
16283;DHT22;8249;48.708;9.030;2022-07-18T08:29:56;26.30;71.60
16283;DHT22;8249;48.708;9.030;2022-07-18T08:32:24;26.50;69.90
16283;DHT22;8249;48.708;9.030;2022-07-18T08:34:51;26.70;72.10
16283;DHT22;8249;48.708;9.030;2022-07-18T08:37:20;26.90;69.10
16283;DHT22;8249;48.708;9.030;2022-07-18T08:39:47;26.90;70.50
16283;DHT22;8249;48.708;9.030;2022-07-18T08:42:16;27.20;67.80
16283;DHT22;8249;48.708;9.030;2022-07-18T08:44:44;27.20;64.50
16283;DHT22;8249;48.708;9.030;2022-07-18T08:47:12;27.30;65.20
16283;DHT22;8249;48.708;9.030;2022-07-18T08:49:42;27.30;66.30
16283;DHT22;8249;48.708;9.030;2022-07-18T08:52:09;27.40;65.90
16283;DHT22;8249;48.708;9.030;2022-07-18T08:54:36;27.50;65.30
16283;DHT22;8249;48.708;9.030;2022-07-18T08:57:03;27.70;66.30
16283;DHT22;8249;48.708;9.030;2022-07-18T08:59:30;28.00;67.50
16283;DHT22;8249;48.708;9.030;2022-07-18T09:01:57;28.30;67.10
16283;DHT22;8249;48.708;9.030;2022-07-18T09:04:35;28.60;65.70
16283;DHT22;8249;48.708;9.030;2022-07-18T09:07:04;28.70;65.90
16283;DHT22;8249;48.708;9.030;2022-07-18T09:09:32;29.00;65.40
16283;DHT22;8249;48.708;9.030;2022-07-18T09:12:00;29.20;64.50
16283;DHT22;8249;48.708;9.030;2022-07-18T09:14:34;29.10;62.40
16283;DHT22;8249;48.708;9.030;2022-07-18T09:17:04;29.00;61.30
16283;DHT22;8249;48.708;9.030;2022-07-18T09:19:31;28.80;61.40
16283;DHT22;8249;48.708;9.030;2022-07-18T09:22:15;28.80;62.00
16283;DHT22;8249;48.708;9.030;2022-07-18T09:24:51;29.00;62.10
16283;DHT22;8249;48.708;9.030;2022-07-18T09:27:27;29.40;62.50
16283;DHT22;8249;48.708;9.030;2022-07-18T09:30:24;29.70;61.40
16283;DHT22;8249;48.708;9.030;2022-07-18T09:32:54;29.80;60.30
16283;DHT22;8249;48.708;9.030;2022-07-18T09:35:24;29.80;61.30
16283;DHT22;8249;48.708;9.030;2022-07-18T09:38:00;30.10;62.40
16283;DHT22;8249;48.708;9.030;2022-07-18T09:40:29;30.00;58.80
16283;DHT22;8249;48.708;9.030;2022-07-18T09:42:58;29.90;59.10
16283;DHT22;8249;48.708;9.030;2022-07-18T09:45:29;29.90;59.10
16283;DHT22;8249;48.708;9.030;2022-07-18T09:47:58;29.80;59.90
16283;DHT22;8249;48.708;9.030;2022-07-18T09:50:28;30.00;59.40
16283;DHT22;8249;48.708;9.030;2022-07-18T09:53:12;30.30;59.10
16283;DHT22;8249;48.708;9.030;2022-07-18T09:55:45;30.50;58.20
16283;DHT22;8249;48.708;9.030;2022-07-18T09:58:15;30.80;57.00
16283;DHT22;8249;48.708;9.030;2022-07-18T10:00:43;31.30;57.90
16283;DHT22;8249;48.708;9.030;2022-07-18T10:03:10;32.00;59.10
16283;DHT22;8249;48.708;9.030;2022-07-18T10:05:38;32.70;56.10
16283;DHT22;8249;48.708;9.030;2022-07-18T10:08:09;33.00;55.60
16283;DHT22;8249;48.708;9.030;2022-07-18T10:10:40;33.50;54.90
16283;DHT22;8249;48.708;9.030;2022-07-18T10:13:08;33.60;52.50
16283;DHT22;8249;48.708;9.030;2022-07-18T10:15:38;33.40;51.90
16283;DHT22;8249;48.708;9.030;2022-07-18T10:18:07;33.20;53.60
16283;DHT22;8249;48.708;9.030;2022-07-18T10:20:36;33.70;55.30
16283;DHT22;8249;48.708;9.030;2022-07-18T10:23:16;34.10;52.50
16283;DHT22;8249;48.708;9.030;2022-07-18T10:25:45;33.80;51.60
16283;DHT22;8249;48.708;9.030;2022-07-18T10:28:30;33.50;52.50
16283;DHT22;8249;48.708;9.030;2022-07-18T10:31:12;33.90;53.90
16283;DHT22;8249;48.708;9.030;2022-07-18T10:33:42;34.70;54.00
16283;DHT22;8249;48.708;9.030;2022-07-18T10:36:12;34.90;53.10
16283;DHT22;8249;48.708;9.030;2022-07-18T10:39:03;35.10;53.50
16283;DHT22;8249;48.708;9.030;2022-07-18T10:41:31;35.50;52.40
16283;DHT22;8249;48.708;9.030;2022-07-18T10:43:58;35.80;52.30
16283;DHT22;8249;48.708;9.030;2022-07-18T10:47:01;35.60;50.80
16283;DHT22;8249;48.708;9.030;2022-07-18T10:52:59;34.40;52.30
16283;DHT22;8249;48.708;9.030;2022-07-18T10:55:27;34.30;52.20
16283;DHT22;8249;48.708;9.030;2022-07-18T10:58:18;34.40;51.60
16283;DHT22;8249;48.708;9.030;2022-07-18T11:00:49;34.40;51.10
16283;DHT22;8249;48.708;9.030;2022-07-18T11:03:21;34.70;51.10
16283;DHT22;8249;48.708;9.030;2022-07-18T11:05:55;34.40;49.90
16283;DHT22;8249;48.708;9.030;2022-07-18T11:08:24;34.40;50.40
16283;DHT22;8249;48.708;9.030;2022-07-18T11:13:43;34.30;51.10
16283;DHT22;8249;48.708;9.030;2022-07-18T11:16:17;34.60;50.80
16283;DHT22;8249;48.708;9.030;2022-07-18T11:19:17;35.10;50.40
16283;DHT22;8249;48.708;9.030;2022-07-18T11:21:56;35.30;49.80
16283;DHT22;8249;48.708;9.030;2022-07-18T11:24:26;35.20;50.60
16283;DHT22;8249;48.708;9.030;2022-07-18T11:26:53;35.30;50.10
16283;DHT22;8249;48.708;9.030;2022-07-18T11:29:20;34.70;49.70
16283;DHT22;8249;48.708;9.030;2022-07-18T11:31:49;35.00;50.80
16283;DHT22;8249;48.708;9.030;2022-07-18T11:34:16;35.60;50.50
16283;DHT22;8249;48.708;9.030;2022-07-18T11:36:45;36.30;49.70
16283;DHT22;8249;48.708;9.030;2022-07-18T11:39:14;36.70;48.70
16283;DHT22;8249;48.708;9.030;2022-07-18T11:41:42;36.80;48.40
16283;DHT22;8249;48.708;9.030;2022-07-18T11:44:17;36.10;48.00
16283;DHT22;8249;48.708;9.030;2022-07-18T11:46:46;36.50;50.10
16283;DHT22;8249;48.708;9.030;2022-07-18T11:49:13;36.90;48.70
16283;DHT22;8249;48.708;9.030;2022-07-18T11:51:41;36.10;48.00
16283;DHT22;8249;48.708;9.030;2022-07-18T11:54:09;35.80;48.10
16283;DHT22;8249;48.708;9.030;2022-07-18T11:56:47;36.50;49.00
16283;DHT22;8249;48.708;9.030;2022-07-18T11:59:14;37.10;48.80
16283;DHT22;8249;48.708;9.030;2022-07-18T12:01:42;37.60;49.80
16283;DHT22;8249;48.708;9.030;2022-07-18T12:04:16;38.00;48.00
16283;DHT22;8249;48.708;9.030;2022-07-18T12:06:45;38.30;48.20
16283;DHT22;8249;48.708;9.030;2022-07-18T12:09:26;38.40;47.10
16283;DHT22;8249;48.708;9.030;2022-07-18T12:11:56;38.10;46.70
16283;DHT22;8249;48.708;9.030;2022-07-18T12:14:23;37.90;46.60
16283;DHT22;8249;48.708;9.030;2022-07-18T12:16:57;38.00;46.30
16283;DHT22;8249;48.708;9.030;2022-07-18T12:19:33;38.10;46.10
16283;DHT22;8249;48.708;9.030;2022-07-18T12:22:05;38.30;46.40
16283;DHT22;8249;48.708;9.030;2022-07-18T12:24:35;38.40;48.10
16283;DHT22;8249;48.708;9.030;2022-07-18T12:27:18;38.60;47.20
16283;DHT22;8249;48.708;9.030;2022-07-18T12:29:56;39.00;47.00
16283;DHT22;8249;48.708;9.030;2022-07-18T12:32:28;38.90;44.90
16283;DHT22;8249;48.708;9.030;2022-07-18T12:34:56;39.00;44.10
16283;DHT22;8249;48.708;9.030;2022-07-18T12:37:25;37.60;44.40
16283;DHT22;8249;48.708;9.030;2022-07-18T12:39:56;37.10;45.00
16283;DHT22;8249;48.708;9.030;2022-07-18T12:42:30;36.50;46.70
16283;DHT22;8249;48.708;9.030;2022-07-18T12:44:57;36.80;46.50
16283;DHT22;8249;48.708;9.030;2022-07-18T12:47:25;37.20;46.20
16283;DHT22;8249;48.708;9.030;2022-07-18T12:49:52;37.90;46.40
16283;DHT22;8249;48.708;9.030;2022-07-18T12:52:19;38.00;45.00
16283;DHT22;8249;48.708;9.030;2022-07-18T12:54:47;38.30;45.50
16283;DHT22;8249;48.708;9.030;2022-07-18T12:57:14;38.40;45.90
16283;DHT22;8249;48.708;9.030;2022-07-18T12:59:44;38.50;45.20
16283;DHT22;8249;48.708;9.030;2022-07-18T13:02:11;38.70;45.10
16283;DHT22;8249;48.708;9.030;2022-07-18T13:04:38;38.80;45.50
16283;DHT22;8249;48.708;9.030;2022-07-18T13:07:05;39.20;46.50
16283;DHT22;8249;48.708;9.030;2022-07-18T13:09:32;38.70;44.90
16283;DHT22;8249;48.708;9.030;2022-07-18T13:12:00;39.00;46.00
16283;DHT22;8249;48.708;9.030;2022-07-18T13:14:28;39.20;45.00
16283;DHT22;8249;48.708;9.030;2022-07-18T13:16:56;38.90;44.70
16283;DHT22;8249;48.708;9.030;2022-07-18T13:19:23;39.20;45.20
16283;DHT22;8249;48.708;9.030;2022-07-18T13:21:50;39.00;43.70
16283;DHT22;8249;48.708;9.030;2022-07-18T13:24:17;37.80;44.90
16283;DHT22;8249;48.708;9.030;2022-07-18T13:26:44;37.90;45.80
16283;DHT22;8249;48.708;9.030;2022-07-18T13:29:11;38.10;45.30
16283;DHT22;8249;48.708;9.030;2022-07-18T13:31:38;38.00;44.90
16283;DHT22;8249;48.708;9.030;2022-07-18T13:34:07;38.10;45.20
16283;DHT22;8249;48.708;9.030;2022-07-18T13:36:34;38.10;44.60
16283;DHT22;8249;48.708;9.030;2022-07-18T13:39:01;37.30;44.60
16283;DHT22;8249;48.708;9.030;2022-07-18T13:41:29;37.00;45.60
16283;DHT22;8249;48.708;9.030;2022-07-18T13:43:56;37.40;45.80
16283;DHT22;8249;48.708;9.030;2022-07-18T13:46:23;37.90;45.50
16283;DHT22;8249;48.708;9.030;2022-07-18T13:48:50;38.30;45.30
16283;DHT22;8249;48.708;9.030;2022-07-18T13:51:19;38.50;45.50
16283;DHT22;8249;48.708;9.030;2022-07-18T13:53:46;38.50;45.10
16283;DHT22;8249;48.708;9.030;2022-07-18T13:56:13;39.00;44.90
16283;DHT22;8249;48.708;9.030;2022-07-18T13:58:40;38.80;43.10
16283;DHT22;8249;48.708;9.030;2022-07-18T14:01:07;38.00;43.30
16283;DHT22;8249;48.708;9.030;2022-07-18T14:03:35;37.60;44.00
16283;DHT22;8249;48.708;9.030;2022-07-18T14:06:02;37.80;44.90
16283;DHT22;8249;48.708;9.030;2022-07-18T14:08:30;38.10;45.00
16283;DHT22;8249;48.708;9.030;2022-07-18T14:10:57;38.60;46.30
16283;DHT22;8249;48.708;9.030;2022-07-18T14:13:24;39.00;43.60
16283;DHT22;8249;48.708;9.030;2022-07-18T14:15:51;38.80;43.90
16283;DHT22;8249;48.708;9.030;2022-07-18T14:18:18;38.10;43.50
16283;DHT22;8249;48.708;9.030;2022-07-18T14:20:45;38.20;44.60
16283;DHT22;8249;48.708;9.030;2022-07-18T14:23:12;38.20;43.30
16283;DHT22;8249;48.708;9.030;2022-07-18T14:25:41;37.50;43.60
16283;DHT22;8249;48.708;9.030;2022-07-18T14:28:08;37.20;45.10
16283;DHT22;8249;48.708;9.030;2022-07-18T14:30:35;37.30;44.60
16283;DHT22;8249;48.708;9.030;2022-07-18T14:33:02;37.00;44.20
16283;DHT22;8249;48.708;9.030;2022-07-18T14:35:30;36.30;44.40
16283;DHT22;8249;48.708;9.030;2022-07-18T14:37:57;35.50;44.90
16283;DHT22;8249;48.708;9.030;2022-07-18T14:40:24;35.20;46.00
16283;DHT22;8249;48.708;9.030;2022-07-18T14:42:52;35.40;45.00
16283;DHT22;8249;48.708;9.030;2022-07-18T14:45:19;35.20;45.10
16283;DHT22;8249;48.708;9.030;2022-07-18T14:47:47;35.10;45.80
16283;DHT22;8249;48.708;9.030;2022-07-18T14:50:14;35.50;46.80
16283;DHT22;8249;48.708;9.030;2022-07-18T14:52:41;35.40;44.90
16283;DHT22;8249;48.708;9.030;2022-07-18T14:55:09;35.40;45.90
16283;DHT22;8249;48.708;9.030;2022-07-18T14:57:36;35.30;45.80
16283;DHT22;8249;48.708;9.030;2022-07-18T15:00:07;35.10;46.90
16283;DHT22;8249;48.708;9.030;2022-07-18T15:02:34;35.10;45.70
16283;DHT22;8249;48.708;9.030;2022-07-18T15:05:01;35.20;47.00
16283;DHT22;8249;48.708;9.030;2022-07-18T15:07:28;35.50;46.10
16283;DHT22;8249;48.708;9.030;2022-07-18T15:09:55;35.60;47.00
16283;DHT22;8249;48.708;9.030;2022-07-18T15:12:23;35.50;45.30
16283;DHT22;8249;48.708;9.030;2022-07-18T15:14:50;34.90;46.00
16283;DHT22;8249;48.708;9.030;2022-07-18T15:17:21;35.00;47.60
16283;DHT22;8249;48.708;9.030;2022-07-18T15:19:48;35.10;47.20
16283;DHT22;8249;48.708;9.030;2022-07-18T15:22:17;35.20;47.60
16283;DHT22;8249;48.708;9.030;2022-07-18T15:24:44;34.90;47.40
16283;DHT22;8249;48.708;9.030;2022-07-18T15:27:11;35.10;48.00
16283;DHT22;8249;48.708;9.030;2022-07-18T15:29:38;35.00;47.00
16283;DHT22;8249;48.708;9.030;2022-07-18T15:32:06;34.70;46.90
16283;DHT22;8249;48.708;9.030;2022-07-18T15:34:36;34.60;47.90
16283;DHT22;8249;48.708;9.030;2022-07-18T15:37:03;34.60;48.50
16283;DHT22;8249;48.708;9.030;2022-07-18T15:39:30;34.50;48.30
16283;DHT22;8249;48.708;9.030;2022-07-18T15:41:57;34.50;48.00
16283;DHT22;8249;48.708;9.030;2022-07-18T15:44:26;34.20;47.80
16283;DHT22;8249;48.708;9.030;2022-07-18T15:46:53;34.10;47.90
16283;DHT22;8249;48.708;9.030;2022-07-18T15:49:20;34.00;47.80
16283;DHT22;8249;48.708;9.030;2022-07-18T15:51:49;33.70;47.90
16283;DHT22;8249;48.708;9.030;2022-07-18T15:54:16;33.40;47.90
16283;DHT22;8249;48.708;9.030;2022-07-18T15:56:44;33.40;49.20
16283;DHT22;8249;48.708;9.030;2022-07-18T15:59:11;33.40;49.60
16283;DHT22;8249;48.708;9.030;2022-07-18T16:01:38;33.40;49.50